sensor_id;sensor_type;location;lat;lon;timestamp;temperature;humidity
22130;DHT22;11231;50.746;4.272;2023-12-29T00:01:58;11.60;99.90
22130;DHT22;11231;50.746;4.272;2023-12-29T00:04:27;11.60;99.90
22130;DHT22;11231;50.746;4.272;2023-12-29T00:06:53;11.70;99.90
22130;DHT22;11231;50.746;4.272;2023-12-29T00:09:19;11.70;99.90
22130;DHT22;11231;50.746;4.272;2023-12-29T00:11:49;11.80;99.90
22130;DHT22;11231;50.746;4.272;2023-12-29T00:14:15;11.90;99.90
22130;DHT22;11231;50.746;4.272;2023-12-29T00:16:41;11.80;99.90
22130;DHT22;11231;50.746;4.272;2023-12-29T00:19:07;11.80;99.90
22130;DHT22;11231;50.746;4.272;2023-12-29T00:21:33;11.80;99.90
22130;DHT22;11231;50.746;4.272;2023-12-29T00:23:58;11.80;99.90
22130;DHT22;11231;50.746;4.272;2023-12-29T00:26:24;11.80;99.90
22130;DHT22;11231;50.746;4.272;2023-12-29T00:28:56;11.80;99.90
22130;DHT22;11231;50.746;4.272;2023-12-29T00:31:23;11.80;99.90
22130;DHT22;11231;50.746;4.272;2023-12-29T00:33:51;11.80;99.90
22130;DHT22;11231;50.746;4.272;2023-12-29T00:36:19;11.70;99.90
22130;DHT22;11231;50.746;4.272;2023-12-29T00:38:45;11.80;99.90
22130;DHT22;11231;50.746;4.272;2023-12-29T00:41:11;11.70;99.90
22130;DHT22;11231;50.746;4.272;2023-12-29T00:43:37;11.80;99.90
22130;DHT22;11231;50.746;4.272;2023-12-29T00:46:04;11.80;99.90
22130;DHT22;11231;50.746;4.272;2023-12-29T00:48:33;11.80;99.90
22130;DHT22;11231;50.746;4.272;2023-12-29T00:51:01;11.80;99.90
22130;DHT22;11231;50.746;4.272;2023-12-29T00:53:26;11.80;99.90
22130;DHT22;11231;50.746;4.272;2023-12-29T00:55:52;11.80;99.90
22130;DHT22;11231;50.746;4.272;2023-12-29T00:58:18;11.90;99.90
22130;DHT22;11231;50.746;4.272;2023-12-29T01:00:44;11.90;99.90
22130;DHT22;11231;50.746;4.272;2023-12-29T01:03:09;11.90;99.90
22130;DHT22;11231;50.746;4.272;2023-12-29T01:05:35;11.90;99.90
22130;DHT22;11231;50.746;4.272;2023-12-29T01:08:01;12.00;99.90
22130;DHT22;11231;50.746;4.272;2023-12-29T01:10:27;12.00;99.90
22130;DHT22;11231;50.746;4.272;2023-12-29T01:12:52;12.00;99.90
22130;DHT22;11231;50.746;4.272;2023-12-29T01:15:18;12.10;99.90
22130;DHT22;11231;50.746;4.272;2023-12-29T01:17:45;12.10;99.90
22130;DHT22;11231;50.746;4.272;2023-12-29T01:20:12;12.00;99.90
22130;DHT22;11231;50.746;4.272;2023-12-29T01:22:38;12.00;99.90
22130;DHT22;11231;50.746;4.272;2023-12-29T01:25:04;12.10;99.90
22130;DHT22;11231;50.746;4.272;2023-12-29T01:27:31;12.10;99.90
22130;DHT22;11231;50.746;4.272;2023-12-29T01:29:57;12.10;99.90
22130;DHT22;11231;50.746;4.272;2023-12-29T01:32:23;12.10;99.90
22130;DHT22;11231;50.746;4.272;2023-12-29T01:34:48;12.00;99.90
22130;DHT22;11231;50.746;4.272;2023-12-29T01:37:14;12.10;99.90
22130;DHT22;11231;50.746;4.272;2023-12-29T01:39:40;12.10;99.90
22130;DHT22;11231;50.746;4.272;2023-12-29T01:42:06;12.10;99.90
22130;DHT22;11231;50.746;4.272;2023-12-29T01:44:32;11.90;99.90
22130;DHT22;11231;50.746;4.272;2023-12-29T01:47:01;12.00;99.90
22130;DHT22;11231;50.746;4.272;2023-12-29T01:49:28;12.00;99.90
22130;DHT22;11231;50.746;4.272;2023-12-29T01:51:58;12.00;99.90
22130;DHT22;11231;50.746;4.272;2023-12-29T01:54:27;12.00;99.90
22130;DHT22;11231;50.746;4.272;2023-12-29T01:56:56;12.10;99.90
22130;DHT22;11231;50.746;4.272;2023-12-29T01:59:23;12.10;99.90
22130;DHT22;11231;50.746;4.272;2023-12-29T02:01:50;12.10;99.90
22130;DHT22;11231;50.746;4.272;2023-12-29T02:04:17;12.10;99.90
22130;DHT22;11231;50.746;4.272;2023-12-29T02:06:43;12.10;99.90
22130;DHT22;11231;50.746;4.272;2023-12-29T02:09:09;12.10;99.90
22130;DHT22;11231;50.746;4.272;2023-12-29T02:11:35;12.10;99.90
22130;DHT22;11231;50.746;4.272;2023-12-29T02:14:01;12.20;99.90
22130;DHT22;11231;50.746;4.272;2023-12-29T02:16:30;12.20;99.90
22130;DHT22;11231;50.746;4.272;2023-12-29T02:19:01;12.10;99.90
22130;DHT22;11231;50.746;4.272;2023-12-29T02:21:29;12.10;99.90
22130;DHT22;11231;50.746;4.272;2023-12-29T02:23:56;12.20;99.90
22130;DHT22;11231;50.746;4.272;2023-12-29T02:26:24;12.10;99.90
22130;DHT22;11231;50.746;4.272;2023-12-29T02:28:59;12.10;99.90
22130;DHT22;11231;50.746;4.272;2023-12-29T02:31:27;12.10;99.90
22130;DHT22;11231;50.746;4.272;2023-12-29T02:33:56;12.10;99.90
22130;DHT22;11231;50.746;4.272;2023-12-29T02:36:22;12.00;99.90
22130;DHT22;11231;50.746;4.272;2023-12-29T02:38:49;12.00;99.90
22130;DHT22;11231;50.746;4.272;2023-12-29T02:41:15;11.90;99.90
22130;DHT22;11231;50.746;4.272;2023-12-29T02:43:41;11.90;99.90
22130;DHT22;11231;50.746;4.272;2023-12-29T02:46:07;11.80;99.90
22130;DHT22;11231;50.746;4.272;2023-12-29T02:48:33;11.80;99.90
22130;DHT22;11231;50.746;4.272;2023-12-29T02:50:58;11.80;99.90
22130;DHT22;11231;50.746;4.272;2023-12-29T02:53:24;11.80;99.90
22130;DHT22;11231;50.746;4.272;2023-12-29T02:55:51;11.80;99.90
22130;DHT22;11231;50.746;4.272;2023-12-29T02:58:17;11.70;99.90
22130;DHT22;11231;50.746;4.272;2023-12-29T03:00:42;11.70;99.90
22130;DHT22;11231;50.746;4.272;2023-12-29T03:03:08;11.70;99.90
22130;DHT22;11231;50.746;4.272;2023-12-29T03:05:34;11.70;99.90
22130;DHT22;11231;50.746;4.272;2023-12-29T03:07:59;11.80;99.90
22130;DHT22;11231;50.746;4.272;2023-12-29T03:10:25;11.80;99.90
22130;DHT22;11231;50.746;4.272;2023-12-29T03:12:51;11.90;99.90
22130;DHT22;11231;50.746;4.272;2023-12-29T03:15:17;11.90;99.90
22130;DHT22;11231;50.746;4.272;2023-12-29T03:17:42;11.90;99.90
22130;DHT22;11231;50.746;4.272;2023-12-29T03:20:08;11.80;99.90
22130;DHT22;11231;50.746;4.272;2023-12-29T03:22:34;11.90;99.90
22130;DHT22;11231;50.746;4.272;2023-12-29T03:25:00;12.00;99.90
22130;DHT22;11231;50.746;4.272;2023-12-29T03:27:26;12.00;99.90
22130;DHT22;11231;50.746;4.272;2023-12-29T03:29:54;11.90;99.90
22130;DHT22;11231;50.746;4.272;2023-12-29T03:32:20;11.90;99.90
22130;DHT22;11231;50.746;4.272;2023-12-29T03:34:46;11.90;99.90
22130;DHT22;11231;50.746;4.272;2023-12-29T03:37:12;11.90;99.90
22130;DHT22;11231;50.746;4.272;2023-12-29T03:39:38;11.70;99.90
22130;DHT22;11231;50.746;4.272;2023-12-29T03:42:04;11.70;99.90
22130;DHT22;11231;50.746;4.272;2023-12-29T03:44:30;11.50;99.90
22130;DHT22;11231;50.746;4.272;2023-12-29T03:46:55;11.50;99.90
22130;DHT22;11231;50.746;4.272;2023-12-29T03:49:21;11.60;99.90
22130;DHT22;11231;50.746;4.272;2023-12-29T03:51:47;11.60;99.90
22130;DHT22;11231;50.746;4.272;2023-12-29T03:54:14;11.60;99.90
22130;DHT22;11231;50.746;4.272;2023-12-29T03:56:40;11.60;99.90
22130;DHT22;11231;50.746;4.272;2023-12-29T03:59:06;11.60;99.90
22130;DHT22;11231;50.746;4.272;2023-12-29T04:01:33;11.60;99.90
22130;DHT22;11231;50.746;4.272;2023-12-29T04:04:00;11.60;99.90
22130;DHT22;11231;50.746;4.272;2023-12-29T04:06:25;11.60;99.90
22130;DHT22;11231;50.746;4.272;2023-12-29T04:08:51;11.50;99.90
22130;DHT22;11231;50.746;4.272;2023-12-29T04:11:17;11.40;99.90
22130;DHT22;11231;50.746;4.272;2023-12-29T04:13:43;11.30;99.90
22130;DHT22;11231;50.746;4.272;2023-12-29T04:16:09;11.30;99.90
22130;DHT22;11231;50.746;4.272;2023-12-29T04:18:34;11.30;99.90
22130;DHT22;11231;50.746;4.272;2023-12-29T04:21:00;11.30;99.90
22130;DHT22;11231;50.746;4.272;2023-12-29T04:23:26;11.20;99.90
22130;DHT22;11231;50.746;4.272;2023-12-29T04:25:52;11.30;99.90
22130;DHT22;11231;50.746;4.272;2023-12-29T04:28:18;11.20;99.90
22130;DHT22;11231;50.746;4.272;2023-12-29T04:30:44;11.20;99.90
22130;DHT22;11231;50.746;4.272;2023-12-29T04:33:10;11.20;99.90
22130;DHT22;11231;50.746;4.272;2023-12-29T04:35:35;11.20;99.90
22130;DHT22;11231;50.746;4.272;2023-12-29T04:38:01;11.10;99.90
22130;DHT22;11231;50.746;4.272;2023-12-29T04:40:27;11.10;99.90
22130;DHT22;11231;50.746;4.272;2023-12-29T04:42:53;11.10;99.90
22130;DHT22;11231;50.746;4.272;2023-12-29T04:45:19;11.10;99.90
22130;DHT22;11231;50.746;4.272;2023-12-29T04:47:44;11.20;99.90
22130;DHT22;11231;50.746;4.272;2023-12-29T04:50:10;11.20;99.90
22130;DHT22;11231;50.746;4.272;2023-12-29T04:52:36;11.20;99.90
22130;DHT22;11231;50.746;4.272;2023-12-29T04:55:02;11.20;99.90
22130;DHT22;11231;50.746;4.272;2023-12-29T04:57:28;11.20;99.90
22130;DHT22;11231;50.746;4.272;2023-12-29T04:59:53;11.30;99.90
22130;DHT22;11231;50.746;4.272;2023-12-29T05:02:19;11.30;99.90
22130;DHT22;11231;50.746;4.272;2023-12-29T05:04:45;11.30;99.90
22130;DHT22;11231;50.746;4.272;2023-12-29T05:07:11;11.30;99.90
22130;DHT22;11231;50.746;4.272;2023-12-29T05:09:37;11.40;99.90
22130;DHT22;11231;50.746;4.272;2023-12-29T05:12:03;11.40;99.90
22130;DHT22;11231;50.746;4.272;2023-12-29T05:14:29;11.40;99.90
22130;DHT22;11231;50.746;4.272;2023-12-29T05:16:55;11.40;99.90
22130;DHT22;11231;50.746;4.272;2023-12-29T05:19:20;11.50;99.90
22130;DHT22;11231;50.746;4.272;2023-12-29T05:21:47;11.50;99.90
22130;DHT22;11231;50.746;4.272;2023-12-29T05:24:16;11.60;99.90
22130;DHT22;11231;50.746;4.272;2023-12-29T05:26:42;11.60;99.90
22130;DHT22;11231;50.746;4.272;2023-12-29T05:29:08;11.60;99.90
22130;DHT22;11231;50.746;4.272;2023-12-29T05:31:33;11.60;99.90
22130;DHT22;11231;50.746;4.272;2023-12-29T05:33:59;11.70;99.90
22130;DHT22;11231;50.746;4.272;2023-12-29T05:36:25;11.70;99.90
22130;DHT22;11231;50.746;4.272;2023-12-29T05:38:51;11.70;99.90
22130;DHT22;11231;50.746;4.272;2023-12-29T05:41:19;11.70;99.90
22130;DHT22;11231;50.746;4.272;2023-12-29T05:43:44;11.70;99.90
22130;DHT22;11231;50.746;4.272;2023-12-29T05:46:11;11.80;99.90
22130;DHT22;11231;50.746;4.272;2023-12-29T05:48:40;11.80;99.90
22130;DHT22;11231;50.746;4.272;2023-12-29T05:51:10;11.70;99.90
22130;DHT22;11231;50.746;4.272;2023-12-29T05:53:39;11.60;99.90
22130;DHT22;11231;50.746;4.272;2023-12-29T05:56:05;11.70;99.90
22130;DHT22;11231;50.746;4.272;2023-12-29T05:58:31;11.70;99.90
22130;DHT22;11231;50.746;4.272;2023-12-29T06:00:57;11.60;99.90
22130;DHT22;11231;50.746;4.272;2023-12-29T06:03:24;11.30;99.90
22130;DHT22;11231;50.746;4.272;2023-12-29T06:05:51;11.20;99.90
22130;DHT22;11231;50.746;4.272;2023-12-29T06:08:16;11.20;99.90
22130;DHT22;11231;50.746;4.272;2023-12-29T06:10:42;11.10;99.90
22130;DHT22;11231;50.746;4.272;2023-12-29T06:13:08;11.00;99.90
22130;DHT22;11231;50.746;4.272;2023-12-29T06:15:34;11.00;99.90
22130;DHT22;11231;50.746;4.272;2023-12-29T06:18:00;10.90;99.90
22130;DHT22;11231;50.746;4.272;2023-12-29T06:20:26;10.90;99.90
22130;DHT22;11231;50.746;4.272;2023-12-29T06:22:51;10.80;99.90
22130;DHT22;11231;50.746;4.272;2023-12-29T06:25:17;10.80;99.90
22130;DHT22;11231;50.746;4.272;2023-12-29T06:27:43;10.80;99.90
22130;DHT22;11231;50.746;4.272;2023-12-29T06:30:09;10.80;99.90
22130;DHT22;11231;50.746;4.272;2023-12-29T06:32:39;10.90;99.90
22130;DHT22;11231;50.746;4.272;2023-12-29T06:35:05;10.90;99.90
22130;DHT22;11231;50.746;4.272;2023-12-29T06:37:32;10.80;99.90
22130;DHT22;11231;50.746;4.272;2023-12-29T06:39:58;10.70;99.90
22130;DHT22;11231;50.746;4.272;2023-12-29T06:42:24;10.80;99.90
22130;DHT22;11231;50.746;4.272;2023-12-29T06:44:50;10.80;99.90
22130;DHT22;11231;50.746;4.272;2023-12-29T06:47:16;10.80;99.90
22130;DHT22;11231;50.746;4.272;2023-12-29T06:49:42;10.80;99.90
22130;DHT22;11231;50.746;4.272;2023-12-29T06:52:07;10.70;99.90
22130;DHT22;11231;50.746;4.272;2023-12-29T06:54:34;10.70;99.90
22130;DHT22;11231;50.746;4.272;2023-12-29T06:57:00;10.70;99.90
22130;DHT22;11231;50.746;4.272;2023-12-29T06:59:25;10.80;99.90
22130;DHT22;11231;50.746;4.272;2023-12-29T07:01:51;10.70;99.90
22130;DHT22;11231;50.746;4.272;2023-12-29T07:04:17;10.70;99.90
22130;DHT22;11231;50.746;4.272;2023-12-29T07:06:43;10.70;99.90
22130;DHT22;11231;50.746;4.272;2023-12-29T07:09:08;10.80;99.90
22130;DHT22;11231;50.746;4.272;2023-12-29T07:11:35;10.80;99.90
22130;DHT22;11231;50.746;4.272;2023-12-29T07:14:02;10.80;99.90
22130;DHT22;11231;50.746;4.272;2023-12-29T07:16:28;10.80;99.90
22130;DHT22;11231;50.746;4.272;2023-12-29T07:18:53;10.80;99.90
22130;DHT22;11231;50.746;4.272;2023-12-29T07:21:19;10.90;99.90
22130;DHT22;11231;50.746;4.272;2023-12-29T07:23:45;10.90;99.90
22130;DHT22;11231;50.746;4.272;2023-12-29T07:26:11;10.90;99.90
22130;DHT22;11231;50.746;4.272;2023-12-29T07:28:37;10.80;99.90
22130;DHT22;11231;50.746;4.272;2023-12-29T07:31:03;10.80;99.90
22130;DHT22;11231;50.746;4.272;2023-12-29T07:33:29;10.90;99.90
22130;DHT22;11231;50.746;4.272;2023-12-29T07:35:55;10.90;99.90
22130;DHT22;11231;50.746;4.272;2023-12-29T07:38:21;11.00;99.90
22130;DHT22;11231;50.746;4.272;2023-12-29T07:40:47;10.90;99.90
22130;DHT22;11231;50.746;4.272;2023-12-29T07:43:15;10.90;99.90
22130;DHT22;11231;50.746;4.272;2023-12-29T07:45:41;10.90;99.90
22130;DHT22;11231;50.746;4.272;2023-12-29T07:48:08;10.90;99.90
22130;DHT22;11231;50.746;4.272;2023-12-29T07:50:34;10.90;99.90
22130;DHT22;11231;50.746;4.272;2023-12-29T07:53:00;10.90;99.90
22130;DHT22;11231;50.746;4.272;2023-12-29T07:55:29;10.90;99.90
22130;DHT22;11231;50.746;4.272;2023-12-29T07:57:55;10.90;99.90
22130;DHT22;11231;50.746;4.272;2023-12-29T08:00:21;10.90;99.90
22130;DHT22;11231;50.746;4.272;2023-12-29T08:02:49;10.90;99.90
22130;DHT22;11231;50.746;4.272;2023-12-29T08:05:15;11.00;99.90
22130;DHT22;11231;50.746;4.272;2023-12-29T08:07:42;10.90;99.90
22130;DHT22;11231;50.746;4.272;2023-12-29T08:10:09;10.90;99.90
22130;DHT22;11231;50.746;4.272;2023-12-29T08:12:35;10.90;99.90
22130;DHT22;11231;50.746;4.272;2023-12-29T08:15:04;10.90;99.90
22130;DHT22;11231;50.746;4.272;2023-12-29T08:17:31;10.90;99.90
22130;DHT22;11231;50.746;4.272;2023-12-29T08:19:57;10.90;99.90
22130;DHT22;11231;50.746;4.272;2023-12-29T08:22:23;11.00;99.90
22130;DHT22;11231;50.746;4.272;2023-12-29T08:24:48;11.00;99.90
22130;DHT22;11231;50.746;4.272;2023-12-29T08:27:14;11.10;99.90
22130;DHT22;11231;50.746;4.272;2023-12-29T08:29:47;11.10;99.90
22130;DHT22;11231;50.746;4.272;2023-12-29T08:32:13;11.10;99.90
22130;DHT22;11231;50.746;4.272;2023-12-29T08:34:42;11.20;99.90
22130;DHT22;11231;50.746;4.272;2023-12-29T08:37:07;11.10;99.90
22130;DHT22;11231;50.746;4.272;2023-12-29T08:39:33;11.20;99.90
22130;DHT22;11231;50.746;4.272;2023-12-29T08:41:59;11.20;99.90
22130;DHT22;11231;50.746;4.272;2023-12-29T08:44:25;11.30;99.90
22130;DHT22;11231;50.746;4.272;2023-12-29T08:46:51;11.30;99.90
22130;DHT22;11231;50.746;4.272;2023-12-29T08:49:16;11.30;99.90
22130;DHT22;11231;50.746;4.272;2023-12-29T08:51:42;11.30;99.90
22130;DHT22;11231;50.746;4.272;2023-12-29T08:54:09;11.30;99.90
22130;DHT22;11231;50.746;4.272;2023-12-29T08:56:35;11.20;99.90
22130;DHT22;11231;50.746;4.272;2023-12-29T08:59:00;11.30;99.90
22130;DHT22;11231;50.746;4.272;2023-12-29T09:01:26;11.20;99.90
22130;DHT22;11231;50.746;4.272;2023-12-29T09:03:52;11.30;99.90
22130;DHT22;11231;50.746;4.272;2023-12-29T09:06:19;11.30;99.90
22130;DHT22;11231;50.746;4.272;2023-12-29T09:08:44;11.40;99.90
22130;DHT22;11231;50.746;4.272;2023-12-29T09:11:10;11.40;99.90
22130;DHT22;11231;50.746;4.272;2023-12-29T09:13:36;11.50;99.90
22130;DHT22;11231;50.746;4.272;2023-12-29T09:16:02;11.60;99.90
22130;DHT22;11231;50.746;4.272;2023-12-29T09:18:27;11.70;99.90
22130;DHT22;11231;50.746;4.272;2023-12-29T09:20:53;11.70;99.90
22130;DHT22;11231;50.746;4.272;2023-12-29T09:23:19;11.90;99.90
22130;DHT22;11231;50.746;4.272;2023-12-29T09:25:45;12.00;99.90
22130;DHT22;11231;50.746;4.272;2023-12-29T09:28:11;11.90;99.90
22130;DHT22;11231;50.746;4.272;2023-12-29T09:30:37;11.90;99.90
22130;DHT22;11231;50.746;4.272;2023-12-29T09:33:03;12.00;99.90
22130;DHT22;11231;50.746;4.272;2023-12-29T09:35:29;12.00;99.90
22130;DHT22;11231;50.746;4.272;2023-12-29T09:37:55;12.00;99.90
22130;DHT22;11231;50.746;4.272;2023-12-29T09:40:20;11.90;99.90
22130;DHT22;11231;50.746;4.272;2023-12-29T09:42:48;12.00;99.90
22130;DHT22;11231;50.746;4.272;2023-12-29T09:45:14;12.10;99.90
22130;DHT22;11231;50.746;4.272;2023-12-29T09:47:43;12.10;99.90
22130;DHT22;11231;50.746;4.272;2023-12-29T09:50:12;12.00;99.90
22130;DHT22;11231;50.746;4.272;2023-12-29T09:52:39;12.00;99.90
22130;DHT22;11231;50.746;4.272;2023-12-29T09:55:08;11.90;99.90
22130;DHT22;11231;50.746;4.272;2023-12-29T09:57:38;11.90;99.90
22130;DHT22;11231;50.746;4.272;2023-12-29T10:00:07;12.00;99.90
22130;DHT22;11231;50.746;4.272;2023-12-29T10:02:38;11.90;99.90
22130;DHT22;11231;50.746;4.272;2023-12-29T10:05:04;11.90;99.90
22130;DHT22;11231;50.746;4.272;2023-12-29T10:07:38;12.00;99.90
22130;DHT22;11231;50.746;4.272;2023-12-29T10:10:05;12.10;99.90
22130;DHT22;11231;50.746;4.272;2023-12-29T10:12:32;12.10;99.90
22130;DHT22;11231;50.746;4.272;2023-12-29T10:15:21;12.10;99.90
22130;DHT22;11231;50.746;4.272;2023-12-29T10:18:09;12.20;99.90
22130;DHT22;11231;50.746;4.272;2023-12-29T10:23:42;12.40;99.90
22130;DHT22;11231;50.746;4.272;2023-12-29T10:26:12;12.50;99.90
22130;DHT22;11231;50.746;4.272;2023-12-29T10:28:38;12.60;99.90
22130;DHT22;11231;50.746;4.272;2023-12-29T10:31:10;12.80;99.90
22130;DHT22;11231;50.746;4.272;2023-12-29T10:33:39;12.80;99.90
22130;DHT22;11231;50.746;4.272;2023-12-29T10:36:05;12.60;99.90
22130;DHT22;11231;50.746;4.272;2023-12-29T10:38:33;12.50;99.90
22130;DHT22;11231;50.746;4.272;2023-12-29T10:41:15;12.50;99.90
22130;DHT22;11231;50.746;4.272;2023-12-29T10:43:43;12.60;99.90
22130;DHT22;11231;50.746;4.272;2023-12-29T10:46:10;12.70;99.90
22130;DHT22;11231;50.746;4.272;2023-12-29T10:48:37;12.60;99.90
22130;DHT22;11231;50.746;4.272;2023-12-29T10:51:04;12.70;99.90
22130;DHT22;11231;50.746;4.272;2023-12-29T10:53:33;12.70;99.90
22130;DHT22;11231;50.746;4.272;2023-12-29T10:56:00;12.70;99.90
22130;DHT22;11231;50.746;4.272;2023-12-29T10:58:26;12.80;99.90
22130;DHT22;11231;50.746;4.272;2023-12-29T11:01:00;12.90;99.90
22130;DHT22;11231;50.746;4.272;2023-12-29T11:03:26;13.00;99.90
22130;DHT22;11231;50.746;4.272;2023-12-29T11:06:01;13.00;99.90
22130;DHT22;11231;50.746;4.272;2023-12-29T11:08:27;13.00;99.90
22130;DHT22;11231;50.746;4.272;2023-12-29T11:10:54;13.00;99.90
22130;DHT22;11231;50.746;4.272;2023-12-29T11:13:21;13.00;99.90
22130;DHT22;11231;50.746;4.272;2023-12-29T11:15:47;13.00;99.90
22130;DHT22;11231;50.746;4.272;2023-12-29T11:18:14;13.00;99.90
22130;DHT22;11231;50.746;4.272;2023-12-29T11:20:45;12.90;99.90
22130;DHT22;11231;50.746;4.272;2023-12-29T11:23:12;12.80;99.90
22130;DHT22;11231;50.746;4.272;2023-12-29T11:25:43;12.80;99.90
22130;DHT22;11231;50.746;4.272;2023-12-29T11:28:11;12.90;99.90
22130;DHT22;11231;50.746;4.272;2023-12-29T11:30:38;12.90;99.90
22130;DHT22;11231;50.746;4.272;2023-12-29T11:33:17;12.90;99.90
22130;DHT22;11231;50.746;4.272;2023-12-29T11:35:58;13.00;99.90
22130;DHT22;11231;50.746;4.272;2023-12-29T11:41:25;13.00;99.90
22130;DHT22;11231;50.746;4.272;2023-12-29T11:44:00;12.90;99.90
22130;DHT22;11231;50.746;4.272;2023-12-29T11:46:43;12.80;99.90
22130;DHT22;11231;50.746;4.272;2023-12-29T11:49:10;12.60;99.90
22130;DHT22;11231;50.746;4.272;2023-12-29T11:51:40;12.50;99.90
22130;DHT22;11231;50.746;4.272;2023-12-29T11:54:06;12.40;99.90
22130;DHT22;11231;50.746;4.272;2023-12-29T11:56:39;12.40;99.90
22130;DHT22;11231;50.746;4.272;2023-12-29T11:59:18;12.20;99.90
22130;DHT22;11231;50.746;4.272;2023-12-29T12:01:53;12.20;99.90
22130;DHT22;11231;50.746;4.272;2023-12-29T12:04:43;12.10;99.90
22130;DHT22;11231;50.746;4.272;2023-12-29T12:12:46;12.00;99.90
22130;DHT22;11231;50.746;4.272;2023-12-29T12:15:43;12.00;99.90
22130;DHT22;11231;50.746;4.272;2023-12-29T12:18:11;12.00;99.90
22130;DHT22;11231;50.746;4.272;2023-12-29T12:20:38;12.00;99.90
22130;DHT22;11231;50.746;4.272;2023-12-29T12:23:17;12.00;99.90
22130;DHT22;11231;50.746;4.272;2023-12-29T12:25:45;12.10;99.90
22130;DHT22;11231;50.746;4.272;2023-12-29T12:28:14;12.00;99.90
22130;DHT22;11231;50.746;4.272;2023-12-29T12:30:39;12.00;99.90
22130;DHT22;11231;50.746;4.272;2023-12-29T12:33:05;12.00;99.90
22130;DHT22;11231;50.746;4.272;2023-12-29T12:35:31;11.90;99.90
22130;DHT22;11231;50.746;4.272;2023-12-29T12:38:27;12.00;99.90
22130;DHT22;11231;50.746;4.272;2023-12-29T12:40:56;12.10;99.90
22130;DHT22;11231;50.746;4.272;2023-12-29T12:43:24;12.00;99.90
22130;DHT22;11231;50.746;4.272;2023-12-29T12:46:00;12.10;99.90
22130;DHT22;11231;50.746;4.272;2023-12-29T12:48:41;12.20;99.90
22130;DHT22;11231;50.746;4.272;2023-12-29T12:51:10;12.30;99.90
22130;DHT22;11231;50.746;4.272;2023-12-29T12:53:42;12.20;99.90
22130;DHT22;11231;50.746;4.272;2023-12-29T12:56:13;12.30;99.90
22130;DHT22;11231;50.746;4.272;2023-12-29T12:58:39;12.30;99.90
22130;DHT22;11231;50.746;4.272;2023-12-29T13:01:06;12.30;99.90
22130;DHT22;11231;50.746;4.272;2023-12-29T13:03:32;12.40;99.90
22130;DHT22;11231;50.746;4.272;2023-12-29T13:06:01;12.50;99.90
22130;DHT22;11231;50.746;4.272;2023-12-29T13:08:27;12.50;99.90
22130;DHT22;11231;50.746;4.272;2023-12-29T13:10:56;12.40;99.90
22130;DHT22;11231;50.746;4.272;2023-12-29T13:13:23;12.40;99.90
22130;DHT22;11231;50.746;4.272;2023-12-29T13:15:50;12.50;99.90
22130;DHT22;11231;50.746;4.272;2023-12-29T13:18:16;12.60;99.90
22130;DHT22;11231;50.746;4.272;2023-12-29T13:20:46;12.50;99.90
22130;DHT22;11231;50.746;4.272;2023-12-29T13:23:12;12.50;99.90
22130;DHT22;11231;50.746;4.272;2023-12-29T13:25:39;12.50;99.90
22130;DHT22;11231;50.746;4.272;2023-12-29T13:28:06;12.50;99.90
22130;DHT22;11231;50.746;4.272;2023-12-29T13:30:32;12.40;99.90
22130;DHT22;11231;50.746;4.272;2023-12-29T13:32:59;12.40;99.90
22130;DHT22;11231;50.746;4.272;2023-12-29T13:35:33;12.30;99.90
22130;DHT22;11231;50.746;4.272;2023-12-29T13:40:34;12.20;99.90
22130;DHT22;11231;50.746;4.272;2023-12-29T13:43:02;12.20;99.90
22130;DHT22;11231;50.746;4.272;2023-12-29T13:45:32;12.20;99.90
22130;DHT22;11231;50.746;4.272;2023-12-29T13:47:59;12.30;99.90
22130;DHT22;11231;50.746;4.272;2023-12-29T13:50:26;12.40;99.90
22130;DHT22;11231;50.746;4.272;2023-12-29T13:52:51;12.30;99.90
22130;DHT22;11231;50.746;4.272;2023-12-29T13:55:24;12.30;99.90
22130;DHT22;11231;50.746;4.272;2023-12-29T13:57:53;12.20;99.90
22130;DHT22;11231;50.746;4.272;2023-12-29T14:00:23;12.10;99.90
22130;DHT22;11231;50.746;4.272;2023-12-29T14:03:05;12.10;99.90
22130;DHT22;11231;50.746;4.272;2023-12-29T14:06:03;12.10;99.90
22130;DHT22;11231;50.746;4.272;2023-12-29T14:08:32;12.00;99.90
22130;DHT22;11231;50.746;4.272;2023-12-29T14:11:00;12.00;99.90
22130;DHT22;11231;50.746;4.272;2023-12-29T14:13:26;12.00;99.90
22130;DHT22;11231;50.746;4.272;2023-12-29T14:15:52;12.10;99.90
22130;DHT22;11231;50.746;4.272;2023-12-29T14:20:47;12.10;99.90
22130;DHT22;11231;50.746;4.272;2023-12-29T14:23:13;12.00;99.90
22130;DHT22;11231;50.746;4.272;2023-12-29T14:25:39;12.00;99.90
22130;DHT22;11231;50.746;4.272;2023-12-29T14:28:16;12.00;99.90
22130;DHT22;11231;50.746;4.272;2023-12-29T14:30:43;11.90;99.90
22130;DHT22;11231;50.746;4.272;2023-12-29T14:33:08;11.80;99.90
22130;DHT22;11231;50.746;4.272;2023-12-29T14:35:34;11.80;99.90
22130;DHT22;11231;50.746;4.272;2023-12-29T14:38:01;11.70;99.90
22130;DHT22;11231;50.746;4.272;2023-12-29T14:40:27;11.70;99.90
22130;DHT22;11231;50.746;4.272;2023-12-29T14:42:53;11.70;99.90
22130;DHT22;11231;50.746;4.272;2023-12-29T14:45:18;11.70;99.90
22130;DHT22;11231;50.746;4.272;2023-12-29T14:47:44;11.70;99.90
22130;DHT22;11231;50.746;4.272;2023-12-29T14:50:14;11.70;99.90
22130;DHT22;11231;50.746;4.272;2023-12-29T14:52:41;11.70;99.90
22130;DHT22;11231;50.746;4.272;2023-12-29T14:55:07;11.80;99.90
22130;DHT22;11231;50.746;4.272;2023-12-29T14:57:32;11.80;99.90
22130;DHT22;11231;50.746;4.272;2023-12-29T14:59:58;11.80;99.90
22130;DHT22;11231;50.746;4.272;2023-12-29T15:02:24;11.80;99.90
22130;DHT22;11231;50.746;4.272;2023-12-29T15:04:50;11.90;99.90
22130;DHT22;11231;50.746;4.272;2023-12-29T15:07:16;11.90;99.90
22130;DHT22;11231;50.746;4.272;2023-12-29T15:09:43;11.90;99.90
22130;DHT22;11231;50.746;4.272;2023-12-29T15:12:09;12.00;99.90
22130;DHT22;11231;50.746;4.272;2023-12-29T15:14:35;12.00;99.90
22130;DHT22;11231;50.746;4.272;2023-12-29T15:17:00;12.10;99.90
22130;DHT22;11231;50.746;4.272;2023-12-29T15:19:26;12.00;99.90
22130;DHT22;11231;50.746;4.272;2023-12-29T15:21:52;12.00;99.90
22130;DHT22;11231;50.746;4.272;2023-12-29T15:24:22;11.90;99.90
22130;DHT22;11231;50.746;4.272;2023-12-29T15:26:48;11.90;99.90
22130;DHT22;11231;50.746;4.272;2023-12-29T15:29:14;11.90;99.90
22130;DHT22;11231;50.746;4.272;2023-12-29T15:31:43;12.00;99.90
22130;DHT22;11231;50.746;4.272;2023-12-29T15:34:12;12.00;99.90
22130;DHT22;11231;50.746;4.272;2023-12-29T15:36:40;11.90;99.90
22130;DHT22;11231;50.746;4.272;2023-12-29T15:39:05;11.90;99.90
22130;DHT22;11231;50.746;4.272;2023-12-29T15:41:32;11.90;99.90
22130;DHT22;11231;50.746;4.272;2023-12-29T15:43:58;11.80;99.90
22130;DHT22;11231;50.746;4.272;2023-12-29T15:46:24;11.80;99.90
22130;DHT22;11231;50.746;4.272;2023-12-29T15:48:50;11.70;99.90